createdAt,value
2019-01-15T00:03:37.917Z,1009.4
2019-01-15T00:08:36.991Z,1009.4
2019-01-15T00:13:37.731Z,1009.4
2019-01-15T00:18:37.088Z,1009.4
2019-01-15T00:23:37.622Z,1009.4
2019-01-15T00:28:37.056Z,1009.4
2019-01-15T00:33:37.543Z,1009.4
2019-01-15T00:38:37.041Z,1009.4
2019-01-15T00:43:37.482Z,1009.4
2019-01-15T00:48:37.947Z,1009.4
2019-01-15T00:53:37.589Z,1009.4
2019-01-15T00:58:37.096Z,1009.4
2019-01-15T01:03:37.659Z,1009.5
2019-01-15T01:08:37.913Z,1009.5
2019-01-15T01:13:37.614Z,1009.5
2019-01-15T01:18:37.053Z,1009.5
2019-01-15T01:23:37.569Z,1009.5
2019-01-15T01:28:37.074Z,1009.5
2019-01-15T01:33:37.836Z,1009.5
2019-01-15T01:38:37.245Z,1009.5
2019-01-15T01:43:37.761Z,1009.5
2019-01-15T01:48:37.191Z,1009.5
2019-01-15T01:53:37.440Z,1009.5
2019-01-15T01:58:37.818Z,1009.5
2019-01-15T02:03:37.446Z,1009.4
2019-01-15T02:08:37.475Z,1009.4
2019-01-15T02:13:37.046Z,1009.4
2019-01-15T02:18:37.524Z,1009.4
2019-01-15T02:23:37.193Z,1009.4
2019-01-15T02:28:37.615Z,1009.4
2019-01-15T02:33:37.734Z,1009.4
2019-01-15T02:38:37.284Z,1009.4
2019-01-15T02:43:37.900Z,1009.3
2019-01-15T02:48:37.525Z,1009.3
2019-01-15T02:53:37.191Z,1009.3
2019-01-15T02:58:37.719Z,1009.3
2019-01-15T03:03:37.270Z,1009.3
2019-01-15T03:08:37.742Z,1009.3
2019-01-15T03:13:37.536Z,1009.2
2019-01-15T03:18:37.136Z,1009.2
2019-01-15T03:23:37.816Z,1009.2
2019-01-15T03:28:37.403Z,1009.2
2019-01-15T03:33:37.164Z,1009.1
2019-01-15T03:38:37.697Z,1009.1
2019-01-15T03:43:37.234Z,1008.9
2019-01-15T03:48:37.803Z,1008.9
2019-01-15T03:53:37.259Z,1008.9
2019-01-15T03:58:37.742Z,1008.9
2019-01-15T04:03:37.732Z,1008.9
2019-01-15T04:08:37.459Z,1008.9
2019-01-15T04:13:37.270Z,1008.8
2019-01-15T04:18:37.734Z,1008.8
2019-01-15T04:23:37.173Z,1008.8
2019-01-15T04:28:37.596Z,1008.8
2019-01-15T04:33:38.158Z,1008.7
2019-01-15T04:38:37.656Z,1008.7
2019-01-15T04:43:38.108Z,1008.5
2019-01-15T04:48:37.593Z,1008.5
2019-01-15T04:53:38.118Z,1008.5
2019-01-15T04:58:37.620Z,1008.5
2019-01-15T05:03:38.309Z,1008.4
2019-01-15T05:08:37.664Z,1008.4
2019-01-15T05:13:38.150Z,1008.2
2019-01-15T05:18:37.607Z,1008.2
2019-01-15T05:23:38.116Z,1008.2
2019-01-15T05:28:37.509Z,1008.2
2019-01-15T05:33:38.176Z,1008.2
2019-01-15T05:38:37.725Z,1008.2
2019-01-15T05:43:38.269Z,1007.9
2019-01-15T05:48:37.701Z,1007.9
2019-01-15T05:53:37.517Z,1007.9
2019-01-15T05:58:38.135Z,1007.9
2019-01-15T06:03:37.662Z,1007.9
2019-01-15T06:08:37.729Z,1007.9
2019-01-15T06:13:42.670Z,1007.5
2019-01-15T06:18:37.346Z,1007.5
2019-01-15T06:23:37.800Z,1007.5
2019-01-15T06:28:37.293Z,1007.5
2019-01-15T06:33:38.096Z,1007.5
2019-01-15T06:38:37.427Z,1007.5
2019-01-15T06:43:37.908Z,1007.4
2019-01-15T06:48:37.376Z,1007.4
2019-01-15T06:53:38.090Z,1007.4
2019-01-15T06:58:37.563Z,1007.4
2019-01-15T07:03:38.051Z,1007.9
2019-01-15T07:08:37.788Z,1007.9
2019-01-15T07:13:37.351Z,1007.9
2019-01-15T07:18:38.320Z,1007.9
2019-01-15T07:23:38.025Z,1007.9
2019-01-15T07:28:37.477Z,1007.9
2019-01-15T07:33:38.191Z,1007.9
2019-01-15T07:38:37.506Z,1007.9
2019-01-15T07:43:37.983Z,1007.9
2019-01-15T07:48:37.650Z,1007.9
2019-01-15T07:53:38.171Z,1007.9
2019-01-15T07:58:37.592Z,1007.9
2019-01-15T08:03:38.067Z,1007.9
2019-01-15T08:08:38.001Z,1007.9
2019-01-15T08:13:37.803Z,1008
2019-01-15T08:18:38.232Z,1008
2019-01-15T08:23:38.252Z,1008
2019-01-15T08:28:37.673Z,1008
2019-01-15T08:33:37.511Z,1007.9
2019-01-15T08:38:38.008Z,1007.9
2019-01-15T08:43:37.596Z,1007.9
2019-01-15T08:48:37.905Z,1007.9
2019-01-15T08:53:37.616Z,1007.9
2019-01-15T08:58:37.994Z,1007.9
2019-01-15T09:03:37.603Z,1007.8
2019-01-15T09:08:37.621Z,1007.8
2019-01-15T09:13:37.591Z,1007.6
2019-01-15T09:18:38.057Z,1007.6
2019-01-15T09:23:37.696Z,1007.6
2019-01-15T09:28:38.188Z,1007.6
2019-01-15T09:33:37.904Z,1007.6
2019-01-15T09:38:37.803Z,1007.6
2019-01-15T09:43:38.242Z,1007.5
2019-01-15T09:48:37.837Z,1007.5
2019-01-15T09:53:38.153Z,1007.5
2019-01-15T09:58:37.611Z,1007.5
2019-01-15T10:03:38.137Z,1007.4
2019-01-15T10:08:37.751Z,1007.4
2019-01-15T10:13:38.470Z,1007.4
2019-01-15T10:18:38.026Z,1007.4
2019-01-15T10:23:38.484Z,1007.4
2019-01-15T10:28:37.862Z,1007.4
2019-01-15T10:33:37.803Z,1007
2019-01-15T10:38:38.279Z,1007
2019-01-15T10:43:38.132Z,1006.8
2019-01-15T10:48:37.574Z,1006.8
2019-01-15T10:53:37.968Z,1006.8
2019-01-15T10:58:37.683Z,1006.8
2019-01-15T11:03:38.439Z,1006.5
2019-01-15T11:08:38.034Z,1006.5
2019-01-15T11:13:37.805Z,1006.3
2019-01-15T11:18:39.508Z,1006.3
2019-01-15T11:23:38.030Z,1006.3
2019-01-15T11:28:38.622Z,1006.3
2019-01-15T11:33:38.485Z,1006.2
2019-01-15T11:38:37.970Z,1006.2
2019-01-15T11:43:39.066Z,1005.9
2019-01-15T11:48:37.782Z,1005.9
2019-01-15T11:53:38.486Z,1005.9
2019-01-15T11:58:37.957Z,1005.9
2019-01-15T12:03:38.551Z,1005.7
2019-01-15T12:08:37.668Z,1005.7
2019-01-15T12:13:38.295Z,1005.2
2019-01-15T12:18:37.761Z,1005.2
2019-01-15T12:23:38.264Z,1005.2
2019-01-15T12:28:38.661Z,1005.2
2019-01-15T12:33:38.283Z,1005.2
2019-01-15T12:38:37.775Z,1005.2
2019-01-15T12:43:38.244Z,1005
2019-01-15T12:48:38.669Z,1005
2019-01-15T12:53:38.264Z,1005
2019-01-15T12:58:38.631Z,1005
2019-01-15T13:03:38.175Z,1004.7
2019-01-15T13:08:37.927Z,1004.7
2019-01-15T13:13:37.899Z,1004.7
2019-01-15T13:18:38.416Z,1004.7
2019-01-15T13:23:37.939Z,1004.7
2019-01-15T13:28:38.366Z,1004.7
2019-01-15T13:33:38.019Z,1004.7
2019-01-15T13:38:38.467Z,1004.7
2019-01-15T13:43:37.825Z,1004.7
2019-01-15T13:48:38.243Z,1004.7
2019-01-15T13:53:38.229Z,1004.7
2019-01-15T13:58:38.719Z,1004.7
2019-01-15T14:03:38.334Z,1004.6
2019-01-15T14:08:38.831Z,1004.6
2019-01-15T14:13:38.163Z,1004.5
2019-01-15T14:18:38.656Z,1004.5
2019-01-15T14:23:38.293Z,1004.5
2019-01-15T14:28:38.345Z,1004.5
2019-01-15T14:33:38.326Z,1004.4
2019-01-15T14:38:38.864Z,1004.4
2019-01-15T14:43:38.260Z,1004.2
2019-01-15T14:48:38.778Z,1004.2
2019-01-15T14:53:38.484Z,1004.2
2019-01-15T14:58:38.014Z,1004.2
2019-01-15T15:03:38.916Z,1004.1
2019-01-15T15:08:38.529Z,1004.1
2019-01-15T15:13:38.156Z,1004.1
2019-01-15T15:18:38.654Z,1004.1
2019-01-15T15:23:38.152Z,1004.1
2019-01-15T15:28:38.608Z,1004.1
2019-01-15T15:33:38.651Z,1004.1
2019-01-15T15:38:38.058Z,1004.1
2019-01-15T15:43:38.621Z,1004.1
2019-01-15T15:48:38.250Z,1004.1
2019-01-15T15:53:38.011Z,1004.1
2019-01-15T15:58:38.836Z,1004.1
2019-01-15T16:03:38.914Z,1004.1
2019-01-15T16:08:38.980Z,1004.1
2019-01-15T16:13:38.012Z,1004.1
2019-01-15T16:18:38.091Z,1004.1
2019-01-15T16:23:38.687Z,1004.1
2019-01-15T16:28:38.311Z,1004.1
2019-01-15T16:33:38.158Z,1004.1
2019-01-15T16:38:38.781Z,1004.1
2019-01-15T16:43:38.398Z,1004.1
2019-01-15T16:48:38.872Z,1004.1
2019-01-15T16:53:38.432Z,1004.1
2019-01-15T16:58:38.915Z,1004.1
2019-01-15T17:03:38.366Z,1004.2
2019-01-15T17:08:38.108Z,1004.2
2019-01-15T17:13:38.909Z,1004.1
2019-01-15T17:18:38.429Z,1004.1
2019-01-15T17:23:39.028Z,1004.1
2019-01-15T17:28:38.388Z,1004.1
2019-01-15T17:33:38.172Z,1004.2
2019-01-15T17:38:38.738Z,1004.2
2019-01-15T17:43:38.091Z,1004.3
2019-01-15T17:48:38.607Z,1004.3
2019-01-15T17:53:38.212Z,1004.3
2019-01-15T17:58:38.661Z,1004.3
2019-01-15T18:03:38.155Z,1004.4
2019-01-15T18:08:38.746Z,1004.4
2019-01-15T18:13:38.080Z,1004.3
2019-01-15T18:18:38.678Z,1004.3
2019-01-15T18:23:38.164Z,1004.3
2019-01-15T18:28:38.624Z,1004.3
2019-01-15T18:33:38.198Z,1004.5
2019-01-15T18:38:38.652Z,1004.5
2019-01-15T18:43:38.246Z,1004.4
2019-01-15T18:48:38.738Z,1004.4
2019-01-15T18:53:38.519Z,1004.4
2019-01-15T18:58:38.916Z,1004.4
2019-01-15T19:03:38.514Z,1004.5
2019-01-15T19:08:39.128Z,1004.5
2019-01-15T19:13:38.623Z,1004.5
2019-01-15T19:18:40.159Z,1004.5
2019-01-15T19:23:38.278Z,1004.5
2019-01-15T19:28:38.766Z,1004.5
2019-01-15T19:33:38.333Z,1004.6
2019-01-15T19:38:38.939Z,1004.6
2019-01-15T19:43:38.349Z,1004.6
2019-01-15T19:48:38.932Z,1004.6
2019-01-15T19:53:38.471Z,1004.6
2019-01-15T19:58:38.985Z,1004.6
2019-01-15T20:03:38.587Z,1004.7
2019-01-15T20:08:38.240Z,1004.7
2019-01-15T20:13:38.682Z,1004.6
2019-01-15T20:18:39.229Z,1004.6
2019-01-15T20:23:38.685Z,1004.6
2019-01-15T20:28:39.146Z,1004.6
2019-01-15T20:33:38.739Z,1004.6
2019-01-15T20:38:39.126Z,1004.6
2019-01-15T20:43:38.536Z,1004.7
2019-01-15T20:48:38.970Z,1004.7
2019-01-15T20:53:38.535Z,1004.7
2019-01-15T20:58:39.052Z,1004.7
2019-01-15T21:03:38.546Z,1004.7
2019-01-15T21:08:39.268Z,1004.7
2019-01-15T21:13:38.606Z,1004.7
2019-01-15T21:18:39.140Z,1004.7
2019-01-15T21:23:38.490Z,1004.7
2019-01-15T21:28:38.950Z,1004.7
2019-01-15T21:33:38.564Z,1004.9
2019-01-15T21:38:39.071Z,1004.9
2019-01-15T21:43:38.685Z,1004.9
2019-01-15T21:48:38.542Z,1004.9
2019-01-15T21:53:39.147Z,1004.9
2019-01-15T21:58:38.587Z,1004.9
2019-01-15T22:03:39.346Z,1004.8
2019-01-15T22:08:39.046Z,1004.8
2019-01-15T22:13:38.604Z,1004.8
2019-01-15T22:18:39.070Z,1004.8
2019-01-15T22:23:38.587Z,1004.8
2019-01-15T22:28:39.029Z,1004.8
2019-01-15T22:33:38.593Z,1004.9
2019-01-15T22:38:39.184Z,1004.9
2019-01-15T22:43:38.729Z,1005
2019-01-15T22:48:39.211Z,1005
2019-01-15T22:53:38.850Z,1005
2019-01-15T22:58:38.652Z,1005
2019-01-15T23:03:39.467Z,1005.1
2019-01-15T23:08:39.330Z,1005.1
2019-01-15T23:13:39.358Z,1005.1
2019-01-15T23:18:38.832Z,1005.1
2019-01-15T23:23:39.292Z,1005.1
2019-01-15T23:28:38.727Z,1005.1
2019-01-15T23:33:39.390Z,1005
2019-01-15T23:38:38.866Z,1005
2019-01-15T23:43:39.334Z,1005
2019-01-15T23:48:38.766Z,1005
2019-01-15T23:53:39.399Z,1005
2019-01-15T23:58:38.813Z,1005
